sensor_id;sensor_type;location;lat;lon;timestamp;P1;durP1;ratioP1;P2;durP2;ratioP2
36247;SDS011;22287;50.824;5.644;2022-10-31T00:00:46;19.15;;;9.85;;
36247;SDS011;22287;50.824;5.644;2022-10-31T00:03:14;17.05;;;10.15;;
36247;SDS011;22287;50.824;5.644;2022-10-31T00:05:44;16.58;;;9.57;;
36247;SDS011;22287;50.824;5.644;2022-10-31T00:08:14;13.90;;;9.48;;
36247;SDS011;22287;50.824;5.644;2022-10-31T00:10:42;16.27;;;9.32;;
36247;SDS011;22287;50.824;5.644;2022-10-31T00:13:10;14.85;;;9.25;;
36247;SDS011;22287;50.824;5.644;2022-10-31T00:15:38;15.93;;;10.77;;
36247;SDS011;22287;50.824;5.644;2022-10-31T00:18:07;17.15;;;10.23;;
36247;SDS011;22287;50.824;5.644;2022-10-31T00:20:35;20.60;;;10.80;;
36247;SDS011;22287;50.824;5.644;2022-10-31T00:23:03;18.10;;;10.07;;
36247;SDS011;22287;50.824;5.644;2022-10-31T00:25:35;15.15;;;9.68;;
36247;SDS011;22287;50.824;5.644;2022-10-31T00:28:04;18.95;;;11.18;;
36247;SDS011;22287;50.824;5.644;2022-10-31T00:30:32;18.67;;;10.63;;
36247;SDS011;22287;50.824;5.644;2022-10-31T00:32:59;17.88;;;10.75;;
36247;SDS011;22287;50.824;5.644;2022-10-31T00:35:26;15.13;;;9.02;;
36247;SDS011;22287;50.824;5.644;2022-10-31T00:37:53;15.73;;;10.48;;
36247;SDS011;22287;50.824;5.644;2022-10-31T00:40:20;18.48;;;10.20;;
36247;SDS011;22287;50.824;5.644;2022-10-31T00:42:47;16.63;;;9.85;;
36247;SDS011;22287;50.824;5.644;2022-10-31T00:45:14;15.40;;;8.85;;
36247;SDS011;22287;50.824;5.644;2022-10-31T00:47:40;17.95;;;11.23;;
36247;SDS011;22287;50.824;5.644;2022-10-31T00:50:07;17.10;;;9.95;;
36247;SDS011;22287;50.824;5.644;2022-10-31T00:52:34;16.10;;;10.02;;
36247;SDS011;22287;50.824;5.644;2022-10-31T00:55:04;14.95;;;9.70;;
36247;SDS011;22287;50.824;5.644;2022-10-31T00:57:33;16.83;;;9.95;;
36247;SDS011;22287;50.824;5.644;2022-10-31T01:00:02;14.80;;;9.93;;
36247;SDS011;22287;50.824;5.644;2022-10-31T01:02:29;18.08;;;10.05;;
36247;SDS011;22287;50.824;5.644;2022-10-31T01:04:56;18.25;;;10.20;;
36247;SDS011;22287;50.824;5.644;2022-10-31T01:07:23;17.63;;;10.05;;
36247;SDS011;22287;50.824;5.644;2022-10-31T01:09:50;16.73;;;9.73;;
36247;SDS011;22287;50.824;5.644;2022-10-31T01:12:18;18.15;;;10.52;;
36247;SDS011;22287;50.824;5.644;2022-10-31T01:14:45;15.68;;;9.52;;
36247;SDS011;22287;50.824;5.644;2022-10-31T01:17:12;21.42;;;10.30;;
36247;SDS011;22287;50.824;5.644;2022-10-31T01:19:40;16.55;;;10.23;;
36247;SDS011;22287;50.824;5.644;2022-10-31T01:22:07;15.82;;;10.02;;
36247;SDS011;22287;50.824;5.644;2022-10-31T01:24:33;18.20;;;9.80;;
36247;SDS011;22287;50.824;5.644;2022-10-31T01:27:01;19.80;;;10.20;;
36247;SDS011;22287;50.824;5.644;2022-10-31T01:29:32;13.30;;;8.32;;
36247;SDS011;22287;50.824;5.644;2022-10-31T01:31:59;16.20;;;9.65;;
36247;SDS011;22287;50.824;5.644;2022-10-31T01:34:26;16.35;;;9.60;;
36247;SDS011;22287;50.824;5.644;2022-10-31T01:36:53;15.65;;;10.00;;
36247;SDS011;22287;50.824;5.644;2022-10-31T01:39:21;17.20;;;10.02;;
36247;SDS011;22287;50.824;5.644;2022-10-31T01:41:51;13.88;;;9.57;;
36247;SDS011;22287;50.824;5.644;2022-10-31T01:49:20;16.00;;;10.27;;
36247;SDS011;22287;50.824;5.644;2022-10-31T01:51:53;17.00;;;9.85;;
36247;SDS011;22287;50.824;5.644;2022-10-31T01:54:26;15.65;;;9.88;;
36247;SDS011;22287;50.824;5.644;2022-10-31T01:56:58;18.27;;;10.00;;
36247;SDS011;22287;50.824;5.644;2022-10-31T01:59:27;16.52;;;9.95;;
36247;SDS011;22287;50.824;5.644;2022-10-31T02:01:59;15.43;;;9.63;;
36247;SDS011;22287;50.824;5.644;2022-10-31T02:04:27;17.75;;;9.90;;
36247;SDS011;22287;50.824;5.644;2022-10-31T02:07:05;16.55;;;9.50;;
36247;SDS011;22287;50.824;5.644;2022-10-31T02:09:57;18.17;;;10.40;;
36247;SDS011;22287;50.824;5.644;2022-10-31T02:12:25;16.50;;;10.10;;
36247;SDS011;22287;50.824;5.644;2022-10-31T02:14:58;16.05;;;9.65;;
36247;SDS011;22287;50.824;5.644;2022-10-31T02:17:26;16.98;;;9.80;;
36247;SDS011;22287;50.824;5.644;2022-10-31T02:19:59;12.57;;;9.35;;
36247;SDS011;22287;50.824;5.644;2022-10-31T02:22:43;13.25;;;9.32;;
36247;SDS011;22287;50.824;5.644;2022-10-31T02:31:03;17.70;;;9.43;;
36247;SDS011;22287;50.824;5.644;2022-10-31T02:34:32;17.70;;;9.60;;
36247;SDS011;22287;50.824;5.644;2022-10-31T02:37:00;15.50;;;9.63;;
36247;SDS011;22287;50.824;5.644;2022-10-31T02:39:36;12.50;;;8.98;;
36247;SDS011;22287;50.824;5.644;2022-10-31T02:46:13;14.77;;;8.65;;
36247;SDS011;22287;50.824;5.644;2022-10-31T02:48:45;18.58;;;9.38;;
36247;SDS011;22287;50.824;5.644;2022-10-31T02:54:15;16.02;;;8.38;;
36247;SDS011;22287;50.824;5.644;2022-10-31T02:56:49;16.25;;;8.93;;
36247;SDS011;22287;50.824;5.644;2022-10-31T02:59:20;14.35;;;8.93;;
36247;SDS011;22287;50.824;5.644;2022-10-31T03:15:30;14.50;;;8.38;;
36247;SDS011;22287;50.824;5.644;2022-10-31T03:21:04;12.88;;;7.22;;
36247;SDS011;22287;50.824;5.644;2022-10-31T03:23:36;13.27;;;8.15;;
36247;SDS011;22287;50.824;5.644;2022-10-31T03:26:06;13.73;;;8.25;;
36247;SDS011;22287;50.824;5.644;2022-10-31T03:33:38;14.60;;;8.15;;
36247;SDS011;22287;50.824;5.644;2022-10-31T03:36:09;13.90;;;6.90;;
36247;SDS011;22287;50.824;5.644;2022-10-31T03:38:39;13.13;;;7.05;;
36247;SDS011;22287;50.824;5.644;2022-10-31T03:41:10;10.88;;;7.22;;
36247;SDS011;22287;50.824;5.644;2022-10-31T03:43:53;11.27;;;7.03;;
36247;SDS011;22287;50.824;5.644;2022-10-31T03:46:25;13.68;;;7.47;;
36247;SDS011;22287;50.824;5.644;2022-10-31T03:48:55;12.93;;;7.22;;
36247;SDS011;22287;50.824;5.644;2022-10-31T03:51:27;11.05;;;6.60;;
36247;SDS011;22287;50.824;5.644;2022-10-31T03:54:02;12.55;;;8.32;;
36247;SDS011;22287;50.824;5.644;2022-10-31T03:56:40;15.77;;;7.82;;
36247;SDS011;22287;50.824;5.644;2022-10-31T03:59:32;11.65;;;7.50;;
36247;SDS011;22287;50.824;5.644;2022-10-31T04:02:07;12.48;;;8.00;;
36247;SDS011;22287;50.824;5.644;2022-10-31T04:04:41;15.68;;;7.03;;
36247;SDS011;22287;50.824;5.644;2022-10-31T04:07:11;13.15;;;6.70;;
36247;SDS011;22287;50.824;5.644;2022-10-31T04:09:40;12.85;;;7.05;;
36247;SDS011;22287;50.824;5.644;2022-10-31T04:12:12;14.63;;;7.05;;
36247;SDS011;22287;50.824;5.644;2022-10-31T04:15:14;13.38;;;7.10;;
36247;SDS011;22287;50.824;5.644;2022-10-31T04:17:42;13.30;;;7.28;;
36247;SDS011;22287;50.824;5.644;2022-10-31T04:20:14;17.70;;;7.70;;
36247;SDS011;22287;50.824;5.644;2022-10-31T04:22:42;11.95;;;6.45;;
36247;SDS011;22287;50.824;5.644;2022-10-31T04:25:08;17.15;;;7.05;;
36247;SDS011;22287;50.824;5.644;2022-10-31T04:27:37;15.20;;;7.68;;
36247;SDS011;22287;50.824;5.644;2022-10-31T04:30:06;16.05;;;7.07;;
36247;SDS011;22287;50.824;5.644;2022-10-31T04:32:36;14.38;;;7.38;;
36247;SDS011;22287;50.824;5.644;2022-10-31T04:35:03;13.23;;;6.80;;
36247;SDS011;22287;50.824;5.644;2022-10-31T04:37:31;12.25;;;7.28;;
36247;SDS011;22287;50.824;5.644;2022-10-31T04:40:00;13.63;;;6.82;;
36247;SDS011;22287;50.824;5.644;2022-10-31T04:42:55;15.38;;;7.13;;
36247;SDS011;22287;50.824;5.644;2022-10-31T04:45:23;12.55;;;6.97;;
36247;SDS011;22287;50.824;5.644;2022-10-31T04:47:51;15.63;;;6.88;;
36247;SDS011;22287;50.824;5.644;2022-10-31T04:50:18;13.48;;;7.15;;
36247;SDS011;22287;50.824;5.644;2022-10-31T04:52:46;10.63;;;6.55;;
36247;SDS011;22287;50.824;5.644;2022-10-31T04:55:16;14.98;;;7.13;;
36247;SDS011;22287;50.824;5.644;2022-10-31T04:57:47;14.48;;;7.50;;
36247;SDS011;22287;50.824;5.644;2022-10-31T05:00:17;14.40;;;7.93;;
36247;SDS011;22287;50.824;5.644;2022-10-31T05:02:49;15.57;;;7.50;;
36247;SDS011;22287;50.824;5.644;2022-10-31T05:05:33;14.32;;;8.45;;
36247;SDS011;22287;50.824;5.644;2022-10-31T05:08:02;12.82;;;6.72;;
36247;SDS011;22287;50.824;5.644;2022-10-31T05:10:30;11.25;;;7.03;;
36247;SDS011;22287;50.824;5.644;2022-10-31T05:12:59;13.60;;;6.75;;
36247;SDS011;22287;50.824;5.644;2022-10-31T05:16:02;13.43;;;6.75;;
36247;SDS011;22287;50.824;5.644;2022-10-31T05:18:52;11.02;;;6.45;;
36247;SDS011;22287;50.824;5.644;2022-10-31T05:21:19;13.65;;;7.10;;
36247;SDS011;22287;50.824;5.644;2022-10-31T05:23:50;16.52;;;7.28;;
36247;SDS011;22287;50.824;5.644;2022-10-31T05:26:33;14.70;;;7.68;;
36247;SDS011;22287;50.824;5.644;2022-10-31T05:29:00;13.13;;;7.80;;
36247;SDS011;22287;50.824;5.644;2022-10-31T05:31:27;10.45;;;6.88;;
36247;SDS011;22287;50.824;5.644;2022-10-31T05:33:54;13.73;;;7.13;;
36247;SDS011;22287;50.824;5.644;2022-10-31T05:36:21;15.18;;;7.30;;
36247;SDS011;22287;50.824;5.644;2022-10-31T05:38:59;13.07;;;7.28;;
36247;SDS011;22287;50.824;5.644;2022-10-31T05:41:40;15.23;;;7.63;;
36247;SDS011;22287;50.824;5.644;2022-10-31T05:44:13;12.15;;;7.72;;
36247;SDS011;22287;50.824;5.644;2022-10-31T05:46:52;15.35;;;8.20;;
36247;SDS011;22287;50.824;5.644;2022-10-31T05:49:50;18.17;;;8.50;;
36247;SDS011;22287;50.824;5.644;2022-10-31T05:52:35;15.30;;;7.72;;
36247;SDS011;22287;50.824;5.644;2022-10-31T05:55:12;16.33;;;7.75;;
36247;SDS011;22287;50.824;5.644;2022-10-31T05:57:48;16.05;;;8.40;;
36247;SDS011;22287;50.824;5.644;2022-10-31T06:00:15;14.40;;;8.20;;
36247;SDS011;22287;50.824;5.644;2022-10-31T06:02:48;16.88;;;8.13;;
36247;SDS011;22287;50.824;5.644;2022-10-31T06:05:23;14.35;;;7.53;;
36247;SDS011;22287;50.824;5.644;2022-10-31T06:07:51;12.48;;;7.78;;
36247;SDS011;22287;50.824;5.644;2022-10-31T06:10:17;12.77;;;7.40;;
36247;SDS011;22287;50.824;5.644;2022-10-31T06:12:50;17.35;;;9.18;;
36247;SDS011;22287;50.824;5.644;2022-10-31T06:15:28;12.43;;;7.18;;
36247;SDS011;22287;50.824;5.644;2022-10-31T06:18:05;10.90;;;7.30;;
36247;SDS011;22287;50.824;5.644;2022-10-31T06:20:35;15.73;;;8.40;;
36247;SDS011;22287;50.824;5.644;2022-10-31T06:23:03;13.52;;;7.82;;
36247;SDS011;22287;50.824;5.644;2022-10-31T06:25:32;16.60;;;8.05;;
36247;SDS011;22287;50.824;5.644;2022-10-31T06:27:59;16.92;;;7.63;;
36247;SDS011;22287;50.824;5.644;2022-10-31T06:30:49;14.85;;;7.60;;
36247;SDS011;22287;50.824;5.644;2022-10-31T06:33:16;13.65;;;6.45;;
36247;SDS011;22287;50.824;5.644;2022-10-31T06:35:53;14.90;;;7.65;;
36247;SDS011;22287;50.824;5.644;2022-10-31T06:38:20;13.65;;;7.35;;
36247;SDS011;22287;50.824;5.644;2022-10-31T06:40:47;13.93;;;7.90;;
36247;SDS011;22287;50.824;5.644;2022-10-31T06:43:18;13.32;;;7.32;;
36247;SDS011;22287;50.824;5.644;2022-10-31T06:45:45;12.23;;;7.32;;
36247;SDS011;22287;50.824;5.644;2022-10-31T06:48:25;13.52;;;7.60;;
36247;SDS011;22287;50.824;5.644;2022-10-31T06:51:18;10.80;;;6.85;;
36247;SDS011;22287;50.824;5.644;2022-10-31T06:53:48;12.85;;;7.00;;
36247;SDS011;22287;50.824;5.644;2022-10-31T06:56:16;16.38;;;7.38;;
36247;SDS011;22287;50.824;5.644;2022-10-31T06:58:47;14.43;;;8.07;;
36247;SDS011;22287;50.824;5.644;2022-10-31T07:01:16;13.10;;;7.20;;
36247;SDS011;22287;50.824;5.644;2022-10-31T07:03:43;11.40;;;6.95;;
36247;SDS011;22287;50.824;5.644;2022-10-31T07:06:10;12.57;;;7.65;;
36247;SDS011;22287;50.824;5.644;2022-10-31T07:08:38;14.00;;;7.38;;
36247;SDS011;22287;50.824;5.644;2022-10-31T07:11:04;10.90;;;6.55;;
36247;SDS011;22287;50.824;5.644;2022-10-31T07:13:32;19.67;;;8.38;;
36247;SDS011;22287;50.824;5.644;2022-10-31T07:16:03;11.48;;;7.50;;
36247;SDS011;22287;50.824;5.644;2022-10-31T07:18:34;15.20;;;8.48;;
36247;SDS011;22287;50.824;5.644;2022-10-31T07:21:02;18.70;;;10.63;;
36247;SDS011;22287;50.824;5.644;2022-10-31T07:23:31;17.08;;;10.20;;
36247;SDS011;22287;50.824;5.644;2022-10-31T07:26:24;13.07;;;8.65;;
36247;SDS011;22287;50.824;5.644;2022-10-31T07:28:51;15.68;;;9.30;;
36247;SDS011;22287;50.824;5.644;2022-10-31T07:31:21;13.75;;;8.45;;
36247;SDS011;22287;50.824;5.644;2022-10-31T07:33:49;13.65;;;8.43;;
36247;SDS011;22287;50.824;5.644;2022-10-31T07:36:25;14.77;;;8.80;;
36247;SDS011;22287;50.824;5.644;2022-10-31T07:38:55;17.23;;;8.90;;
36247;SDS011;22287;50.824;5.644;2022-10-31T07:41:22;17.05;;;8.80;;
36247;SDS011;22287;50.824;5.644;2022-10-31T07:43:52;12.90;;;8.57;;
36247;SDS011;22287;50.824;5.644;2022-10-31T07:46:53;18.15;;;9.02;;
36247;SDS011;22287;50.824;5.644;2022-10-31T07:49:38;17.25;;;9.27;;
36247;SDS011;22287;50.824;5.644;2022-10-31T07:52:08;18.27;;;9.65;;
36247;SDS011;22287;50.824;5.644;2022-10-31T07:55:13;20.85;;;12.48;;
36247;SDS011;22287;50.824;5.644;2022-10-31T07:57:45;20.55;;;9.98;;
36247;SDS011;22287;50.824;5.644;2022-10-31T08:00:12;17.33;;;10.05;;
36247;SDS011;22287;50.824;5.644;2022-10-31T08:02:42;16.63;;;9.05;;
36247;SDS011;22287;50.824;5.644;2022-10-31T08:05:29;15.02;;;9.23;;
36247;SDS011;22287;50.824;5.644;2022-10-31T08:08:22;14.90;;;9.60;;
36247;SDS011;22287;50.824;5.644;2022-10-31T08:10:50;15.02;;;9.35;;
36247;SDS011;22287;50.824;5.644;2022-10-31T08:13:31;18.33;;;9.27;;
36247;SDS011;22287;50.824;5.644;2022-10-31T08:15:58;15.70;;;10.52;;
36247;SDS011;22287;50.824;5.644;2022-10-31T08:18:33;21.00;;;10.93;;
36247;SDS011;22287;50.824;5.644;2022-10-31T08:20:59;15.95;;;9.57;;
36247;SDS011;22287;50.824;5.644;2022-10-31T08:23:43;19.80;;;10.55;;
36247;SDS011;22287;50.824;5.644;2022-10-31T08:26:09;16.73;;;10.40;;
36247;SDS011;22287;50.824;5.644;2022-10-31T08:28:36;20.25;;;11.07;;
36247;SDS011;22287;50.824;5.644;2022-10-31T08:31:03;19.23;;;10.90;;
36247;SDS011;22287;50.824;5.644;2022-10-31T08:33:39;17.65;;;10.57;;
36247;SDS011;22287;50.824;5.644;2022-10-31T08:36:19;22.30;;;11.27;;
36247;SDS011;22287;50.824;5.644;2022-10-31T08:38:55;16.40;;;10.20;;
36247;SDS011;22287;50.824;5.644;2022-10-31T08:41:27;22.88;;;11.88;;
36247;SDS011;22287;50.824;5.644;2022-10-31T08:43:55;18.67;;;10.93;;
36247;SDS011;22287;50.824;5.644;2022-10-31T08:46:22;20.80;;;10.75;;
36247;SDS011;22287;50.824;5.644;2022-10-31T08:48:48;25.80;;;12.80;;
36247;SDS011;22287;50.824;5.644;2022-10-31T08:51:17;23.02;;;12.23;;
36247;SDS011;22287;50.824;5.644;2022-10-31T08:53:44;18.00;;;11.50;;
36247;SDS011;22287;50.824;5.644;2022-10-31T08:56:36;22.98;;;12.75;;
36247;SDS011;22287;50.824;5.644;2022-10-31T08:59:12;21.58;;;12.60;;
36247;SDS011;22287;50.824;5.644;2022-10-31T09:01:58;25.35;;;13.00;;
36247;SDS011;22287;50.824;5.644;2022-10-31T09:04:25;19.30;;;11.77;;
36247;SDS011;22287;50.824;5.644;2022-10-31T09:06:52;20.92;;;12.55;;
36247;SDS011;22287;50.824;5.644;2022-10-31T09:09:39;25.40;;;13.10;;
36247;SDS011;22287;50.824;5.644;2022-10-31T09:12:06;25.88;;;13.52;;
36247;SDS011;22287;50.824;5.644;2022-10-31T09:14:50;22.48;;;13.80;;
36247;SDS011;22287;50.824;5.644;2022-10-31T09:17:24;19.52;;;13.13;;
36247;SDS011;22287;50.824;5.644;2022-10-31T09:20:12;28.15;;;14.05;;
36247;SDS011;22287;50.824;5.644;2022-10-31T09:22:38;22.48;;;13.50;;
36247;SDS011;22287;50.824;5.644;2022-10-31T09:25:07;25.80;;;13.65;;
36247;SDS011;22287;50.824;5.644;2022-10-31T09:27:36;23.50;;;13.30;;
36247;SDS011;22287;50.824;5.644;2022-10-31T09:30:05;25.88;;;13.65;;
36247;SDS011;22287;50.824;5.644;2022-10-31T09:32:32;24.23;;;14.10;;
36247;SDS011;22287;50.824;5.644;2022-10-31T09:34:59;30.00;;;15.02;;
36247;SDS011;22287;50.824;5.644;2022-10-31T09:37:27;25.98;;;13.98;;
36247;SDS011;22287;50.824;5.644;2022-10-31T09:39:53;29.88;;;13.73;;
36247;SDS011;22287;50.824;5.644;2022-10-31T09:42:43;24.27;;;12.05;;
36247;SDS011;22287;50.824;5.644;2022-10-31T09:45:26;25.05;;;14.55;;
36247;SDS011;22287;50.824;5.644;2022-10-31T09:48:09;25.75;;;14.63;;
36247;SDS011;22287;50.824;5.644;2022-10-31T09:51:08;26.45;;;13.88;;
36247;SDS011;22287;50.824;5.644;2022-10-31T09:56:49;23.63;;;13.18;;
36247;SDS011;22287;50.824;5.644;2022-10-31T09:59:21;27.60;;;13.88;;
36247;SDS011;22287;50.824;5.644;2022-10-31T10:01:55;24.30;;;13.15;;
36247;SDS011;22287;50.824;5.644;2022-10-31T10:22:38;26.23;;;12.77;;
36247;SDS011;22287;50.824;5.644;2022-10-31T10:27:48;21.42;;;11.93;;
36247;SDS011;22287;50.824;5.644;2022-10-31T10:39:33;23.85;;;11.20;;
36247;SDS011;22287;50.824;5.644;2022-10-31T10:42:19;19.55;;;11.55;;
36247;SDS011;22287;50.824;5.644;2022-10-31T10:45:15;23.55;;;11.70;;
36247;SDS011;22287;50.824;5.644;2022-10-31T10:48:05;23.98;;;12.23;;
36247;SDS011;22287;50.824;5.644;2022-10-31T10:50:36;20.83;;;10.40;;
36247;SDS011;22287;50.824;5.644;2022-10-31T10:58:35;26.33;;;12.30;;
36247;SDS011;22287;50.824;5.644;2022-10-31T11:01:13;24.52;;;11.60;;
36247;SDS011;22287;50.824;5.644;2022-10-31T11:03:41;19.77;;;11.32;;
36247;SDS011;22287;50.824;5.644;2022-10-31T11:06:21;20.95;;;10.82;;
36247;SDS011;22287;50.824;5.644;2022-10-31T11:08:52;18.00;;;10.82;;
36247;SDS011;22287;50.824;5.644;2022-10-31T11:14:03;20.60;;;10.05;;
36247;SDS011;22287;50.824;5.644;2022-10-31T11:19:24;18.60;;;9.65;;
36247;SDS011;22287;50.824;5.644;2022-10-31T11:21:53;15.75;;;9.43;;
36247;SDS011;22287;50.824;5.644;2022-10-31T11:24:39;19.90;;;9.25;;
36247;SDS011;22287;50.824;5.644;2022-10-31T11:29:42;18.27;;;9.77;;
36247;SDS011;22287;50.824;5.644;2022-10-31T11:32:15;14.63;;;9.10;;
36247;SDS011;22287;50.824;5.644;2022-10-31T11:34:50;24.25;;;11.48;;
36247;SDS011;22287;50.824;5.644;2022-10-31T11:37:27;18.70;;;10.15;;
36247;SDS011;22287;50.824;5.644;2022-10-31T11:39:57;16.65;;;10.35;;
36247;SDS011;22287;50.824;5.644;2022-10-31T11:42:28;19.02;;;9.98;;
36247;SDS011;22287;50.824;5.644;2022-10-31T11:45:06;17.50;;;9.80;;
36247;SDS011;22287;50.824;5.644;2022-10-31T11:47:44;21.75;;;9.45;;
36247;SDS011;22287;50.824;5.644;2022-10-31T11:50:23;18.65;;;11.05;;
36247;SDS011;22287;50.824;5.644;2022-10-31T11:52:52;18.88;;;8.65;;
36247;SDS011;22287;50.824;5.644;2022-10-31T11:55:38;16.77;;;9.20;;
36247;SDS011;22287;50.824;5.644;2022-10-31T11:58:27;19.27;;;9.98;;
36247;SDS011;22287;50.824;5.644;2022-10-31T12:00:54;17.10;;;9.68;;
36247;SDS011;22287;50.824;5.644;2022-10-31T12:06:16;21.13;;;10.05;;
36247;SDS011;22287;50.824;5.644;2022-10-31T12:08:50;16.83;;;8.65;;
36247;SDS011;22287;50.824;5.644;2022-10-31T12:11:22;15.38;;;8.40;;
36247;SDS011;22287;50.824;5.644;2022-10-31T12:17:04;17.10;;;9.30;;
36247;SDS011;22287;50.824;5.644;2022-10-31T12:22:06;19.23;;;9.32;;
36247;SDS011;22287;50.824;5.644;2022-10-31T12:24:58;16.80;;;9.00;;
36247;SDS011;22287;50.824;5.644;2022-10-31T12:30:21;14.90;;;8.73;;
36247;SDS011;22287;50.824;5.644;2022-10-31T12:35:57;18.75;;;8.00;;
36247;SDS011;22287;50.824;5.644;2022-10-31T12:38:49;16.85;;;8.00;;
36247;SDS011;22287;50.824;5.644;2022-10-31T12:44:21;18.05;;;9.00;;
36247;SDS011;22287;50.824;5.644;2022-10-31T12:55:34;16.55;;;7.80;;
36247;SDS011;22287;50.824;5.644;2022-10-31T13:00:42;18.33;;;8.13;;
36247;SDS011;22287;50.824;5.644;2022-10-31T13:03:22;21.33;;;8.65;;
36247;SDS011;22287;50.824;5.644;2022-10-31T13:05:56;16.17;;;7.80;;
36247;SDS011;22287;50.824;5.644;2022-10-31T13:08:29;16.02;;;7.13;;
36247;SDS011;22287;50.824;5.644;2022-10-31T13:11:32;15.35;;;7.45;;
36247;SDS011;22287;50.824;5.644;2022-10-31T13:14:07;16.40;;;7.82;;
36247;SDS011;22287;50.824;5.644;2022-10-31T13:16:46;11.23;;;6.85;;
36247;SDS011;22287;50.824;5.644;2022-10-31T13:22:08;13.30;;;7.15;;
36247;SDS011;22287;50.824;5.644;2022-10-31T13:25:02;14.95;;;7.07;;
36247;SDS011;22287;50.824;5.644;2022-10-31T13:30:34;11.73;;;6.30;;
36247;SDS011;22287;50.824;5.644;2022-10-31T13:35:51;7.03;;;4.20;;
36247;SDS011;22287;50.824;5.644;2022-10-31T13:41:13;6.95;;;3.85;;
36247;SDS011;22287;50.824;5.644;2022-10-31T13:46:44;7.97;;;3.37;;
36247;SDS011;22287;50.824;5.644;2022-10-31T13:51:50;10.55;;;3.50;;
36247;SDS011;22287;50.824;5.644;2022-10-31T13:56:51;7.55;;;2.65;;
36247;SDS011;22287;50.824;5.644;2022-10-31T13:59:21;5.95;;;2.33;;
36247;SDS011;22287;50.824;5.644;2022-10-31T14:01:55;9.23;;;3.65;;
36247;SDS011;22287;50.824;5.644;2022-10-31T14:04:25;7.60;;;2.75;;
36247;SDS011;22287;50.824;5.644;2022-10-31T14:06:57;7.03;;;2.70;;
36247;SDS011;22287;50.824;5.644;2022-10-31T14:09:32;11.80;;;3.70;;
36247;SDS011;22287;50.824;5.644;2022-10-31T14:12:27;7.45;;;2.67;;
36247;SDS011;22287;50.824;5.644;2022-10-31T14:15:02;8.32;;;2.63;;
36247;SDS011;22287;50.824;5.644;2022-10-31T14:17:44;5.70;;;2.60;;
36247;SDS011;22287;50.824;5.644;2022-10-31T14:22:40;5.95;;;2.75;;
36247;SDS011;22287;50.824;5.644;2022-10-31T14:27:55;7.97;;;2.63;;
36247;SDS011;22287;50.824;5.644;2022-10-31T14:30:24;9.07;;;2.40;;
36247;SDS011;22287;50.824;5.644;2022-10-31T14:32:54;6.60;;;2.53;;
36247;SDS011;22287;50.824;5.644;2022-10-31T14:35:26;5.85;;;2.50;;
36247;SDS011;22287;50.824;5.644;2022-10-31T14:38:06;9.77;;;3.13;;
36247;SDS011;22287;50.824;5.644;2022-10-31T14:43:26;7.72;;;2.35;;
36247;SDS011;22287;50.824;5.644;2022-10-31T14:46:07;6.22;;;2.50;;
36247;SDS011;22287;50.824;5.644;2022-10-31T14:51:36;6.10;;;2.50;;
36247;SDS011;22287;50.824;5.644;2022-10-31T14:54:07;5.90;;;2.70;;
36247;SDS011;22287;50.824;5.644;2022-10-31T14:56:47;11.38;;;3.00;;
36247;SDS011;22287;50.824;5.644;2022-10-31T14:59:19;7.93;;;2.63;;
36247;SDS011;22287;50.824;5.644;2022-10-31T15:01:55;9.23;;;2.70;;
36247;SDS011;22287;50.824;5.644;2022-10-31T15:04:27;10.57;;;3.10;;
36247;SDS011;22287;50.824;5.644;2022-10-31T15:09:37;8.27;;;2.42;;
36247;SDS011;22287;50.824;5.644;2022-10-31T15:14:49;8.43;;;2.45;;
36247;SDS011;22287;50.824;5.644;2022-10-31T15:17:16;7.15;;;2.50;;
36247;SDS011;22287;50.824;5.644;2022-10-31T15:19:44;9.20;;;2.70;;
36247;SDS011;22287;50.824;5.644;2022-10-31T15:22:16;7.63;;;2.28;;
36247;SDS011;22287;50.824;5.644;2022-10-31T15:24:45;7.05;;;2.92;;
36247;SDS011;22287;50.824;5.644;2022-10-31T15:27:15;6.30;;;2.80;;
36247;SDS011;22287;50.824;5.644;2022-10-31T15:29:47;7.03;;;2.33;;
36247;SDS011;22287;50.824;5.644;2022-10-31T15:32:28;8.73;;;2.90;;
36247;SDS011;22287;50.824;5.644;2022-10-31T15:34:55;5.65;;;2.50;;
36247;SDS011;22287;50.824;5.644;2022-10-31T15:37:41;5.70;;;1.92;;
36247;SDS011;22287;50.824;5.644;2022-10-31T15:40:15;8.18;;;2.72;;
36247;SDS011;22287;50.824;5.644;2022-10-31T15:42:45;9.90;;;2.65;;
36247;SDS011;22287;50.824;5.644;2022-10-31T15:45:17;4.10;;;2.03;;
36247;SDS011;22287;50.824;5.644;2022-10-31T15:48:00;6.45;;;2.40;;
36247;SDS011;22287;50.824;5.644;2022-10-31T15:50:36;9.27;;;2.72;;
36247;SDS011;22287;50.824;5.644;2022-10-31T15:53:19;8.73;;;2.78;;
36247;SDS011;22287;50.824;5.644;2022-10-31T15:55:49;4.32;;;2.00;;
36247;SDS011;22287;50.824;5.644;2022-10-31T15:58:29;6.63;;;2.05;;
36247;SDS011;22287;50.824;5.644;2022-10-31T16:00:59;4.60;;;2.20;;
36247;SDS011;22287;50.824;5.644;2022-10-31T16:03:32;7.95;;;2.40;;
36247;SDS011;22287;50.824;5.644;2022-10-31T16:06:00;6.45;;;2.33;;
36247;SDS011;22287;50.824;5.644;2022-10-31T16:10:59;10.65;;;3.17;;
36247;SDS011;22287;50.824;5.644;2022-10-31T16:13:27;6.10;;;2.25;;
36247;SDS011;22287;50.824;5.644;2022-10-31T16:15:58;6.72;;;2.28;;
36247;SDS011;22287;50.824;5.644;2022-10-31T16:18:47;10.25;;;3.40;;
36247;SDS011;22287;50.824;5.644;2022-10-31T16:21:22;9.35;;;2.58;;
36247;SDS011;22287;50.824;5.644;2022-10-31T16:23:53;9.57;;;2.33;;
36247;SDS011;22287;50.824;5.644;2022-10-31T16:26:23;6.65;;;3.05;;
36247;SDS011;22287;50.824;5.644;2022-10-31T16:28:52;8.27;;;2.83;;
36247;SDS011;22287;50.824;5.644;2022-10-31T16:31:38;6.07;;;2.75;;
36247;SDS011;22287;50.824;5.644;2022-10-31T16:34:24;12.63;;;2.83;;
36247;SDS011;22287;50.824;5.644;2022-10-31T16:36:52;6.40;;;2.45;;
36247;SDS011;22287;50.824;5.644;2022-10-31T16:39:19;5.97;;;2.85;;
36247;SDS011;22287;50.824;5.644;2022-10-31T16:41:55;7.15;;;2.80;;
36247;SDS011;22287;50.824;5.644;2022-10-31T16:44:24;7.13;;;2.47;;
36247;SDS011;22287;50.824;5.644;2022-10-31T16:49:35;5.63;;;2.38;;
36247;SDS011;22287;50.824;5.644;2022-10-31T16:52:01;9.95;;;2.47;;
36247;SDS011;22287;50.824;5.644;2022-10-31T16:54:28;5.88;;;2.38;;
36247;SDS011;22287;50.824;5.644;2022-10-31T16:56:57;7.35;;;2.45;;
36247;SDS011;22287;50.824;5.644;2022-10-31T16:59:25;10.00;;;2.67;;
36247;SDS011;22287;50.824;5.644;2022-10-31T17:01:53;7.82;;;2.30;;
36247;SDS011;22287;50.824;5.644;2022-10-31T17:04:21;8.27;;;2.28;;
36247;SDS011;22287;50.824;5.644;2022-10-31T17:06:48;7.68;;;2.53;;
36247;SDS011;22287;50.824;5.644;2022-10-31T17:09:15;8.88;;;3.30;;
36247;SDS011;22287;50.824;5.644;2022-10-31T17:11:48;10.13;;;3.42;;
36247;SDS011;22287;50.824;5.644;2022-10-31T17:14:17;7.75;;;2.70;;
36247;SDS011;22287;50.824;5.644;2022-10-31T17:16:45;8.10;;;2.53;;
36247;SDS011;22287;50.824;5.644;2022-10-31T17:19:12;10.38;;;2.70;;
36247;SDS011;22287;50.824;5.644;2022-10-31T17:21:39;9.57;;;2.70;;
36247;SDS011;22287;50.824;5.644;2022-10-31T17:24:07;7.80;;;3.05;;
36247;SDS011;22287;50.824;5.644;2022-10-31T17:26:54;6.60;;;2.63;;
36247;SDS011;22287;50.824;5.644;2022-10-31T17:29:21;6.38;;;3.00;;
36247;SDS011;22287;50.824;5.644;2022-10-31T17:31:48;9.70;;;3.67;;
36247;SDS011;22287;50.824;5.644;2022-10-31T17:34:14;10.90;;;2.97;;
36247;SDS011;22287;50.824;5.644;2022-10-31T17:36:41;6.50;;;2.53;;
36247;SDS011;22287;50.824;5.644;2022-10-31T17:39:08;5.00;;;2.70;;
36247;SDS011;22287;50.824;5.644;2022-10-31T17:41:36;5.65;;;2.53;;
36247;SDS011;22287;50.824;5.644;2022-10-31T17:44:03;5.93;;;2.22;;